sensor_id;sensor_type;location;lat;lon;timestamp;pressure;altitude;pressure_sealevel;temperature;humidity
62928;BME280;51070;52.236;-0.892;2023-03-20T00:01:22;100857.65;;;8.00;73.90
62928;BME280;51070;52.236;-0.892;2023-03-20T00:03:49;100860.38;;;7.99;73.99
62928;BME280;51070;52.236;-0.892;2023-03-20T00:06:26;100853.30;;;7.99;74.05
62928;BME280;51070;52.236;-0.892;2023-03-20T00:08:56;100850.95;;;7.96;73.85
62928;BME280;51070;52.236;-0.892;2023-03-20T00:13:55;100850.84;;;7.90;74.08
62928;BME280;51070;52.236;-0.892;2023-03-20T00:16:23;100854.10;;;7.90;74.17
62928;BME280;51070;52.236;-0.892;2023-03-20T00:18:49;100846.19;;;7.90;74.14
62928;BME280;51070;52.236;-0.892;2023-03-20T00:21:18;100839.30;;;7.90;74.17
62928;BME280;51070;52.236;-0.892;2023-03-20T00:23:43;100834.89;;;7.87;74.13
62928;BME280;51070;52.236;-0.892;2023-03-20T00:26:14;100832.31;;;7.83;74.28
62928;BME280;51070;52.236;-0.892;2023-03-20T00:28:44;100832.77;;;7.78;74.38
62928;BME280;51070;52.236;-0.892;2023-03-20T00:31:21;100838.73;;;7.77;74.52
62928;BME280;51070;52.236;-0.892;2023-03-20T00:33:49;100839.96;;;7.74;74.55
62928;BME280;51070;52.236;-0.892;2023-03-20T00:36:14;100843.48;;;7.72;74.79
62928;BME280;51070;52.236;-0.892;2023-03-20T00:38:39;100843.70;;;7.73;74.79
62928;BME280;51070;52.236;-0.892;2023-03-20T00:43:42;100841.14;;;7.69;74.74
62928;BME280;51070;52.236;-0.892;2023-03-20T00:46:12;100841.64;;;7.69;74.71
62928;BME280;51070;52.236;-0.892;2023-03-20T00:48:39;100837.27;;;7.68;74.84
62928;BME280;51070;52.236;-0.892;2023-03-20T00:51:06;100836.32;;;7.65;74.91
62928;BME280;51070;52.236;-0.892;2023-03-20T00:53:32;100839.90;;;7.65;74.97
62928;BME280;51070;52.236;-0.892;2023-03-20T00:55:58;100833.20;;;7.65;74.98
62928;BME280;51070;52.236;-0.892;2023-03-20T00:58:24;100828.09;;;7.66;74.87
62928;BME280;51070;52.236;-0.892;2023-03-20T01:00:49;100823.88;;;7.68;74.89
62928;BME280;51070;52.236;-0.892;2023-03-20T01:03:17;100825.14;;;7.69;74.96
62928;BME280;51070;52.236;-0.892;2023-03-20T01:05:44;100833.36;;;7.69;74.83
62928;BME280;51070;52.236;-0.892;2023-03-20T01:08:20;100829.69;;;7.68;74.86
62928;BME280;51070;52.236;-0.892;2023-03-20T01:10:48;100828.32;;;7.68;75.14
62928;BME280;51070;52.236;-0.892;2023-03-20T01:13:21;100826.19;;;7.70;75.03
62928;BME280;51070;52.236;-0.892;2023-03-20T01:15:48;100821.94;;;7.67;75.01
62928;BME280;51070;52.236;-0.892;2023-03-20T01:18:15;100823.42;;;7.66;74.81
62928;BME280;51070;52.236;-0.892;2023-03-20T01:20:42;100819.84;;;7.66;75.01
62928;BME280;51070;52.236;-0.892;2023-03-20T01:23:08;100821.71;;;7.66;75.09
62928;BME280;51070;52.236;-0.892;2023-03-20T01:25:34;100819.61;;;7.65;75.15
62928;BME280;51070;52.236;-0.892;2023-03-20T01:28:00;100818.34;;;7.64;75.03
62928;BME280;51070;52.236;-0.892;2023-03-20T01:30:29;100811.48;;;7.60;75.08
62928;BME280;51070;52.236;-0.892;2023-03-20T01:32:57;100811.05;;;7.58;75.29
62928;BME280;51070;52.236;-0.892;2023-03-20T01:35:26;100809.13;;;7.58;75.23
62928;BME280;51070;52.236;-0.892;2023-03-20T01:37:52;100810.45;;;7.57;75.47
62928;BME280;51070;52.236;-0.892;2023-03-20T01:40:31;100807.17;;;7.56;75.58
62928;BME280;51070;52.236;-0.892;2023-03-20T01:42:59;100803.69;;;7.55;75.63
62928;BME280;51070;52.236;-0.892;2023-03-20T01:45:31;100800.54;;;7.54;75.57
62928;BME280;51070;52.236;-0.892;2023-03-20T01:47:58;100799.62;;;7.53;75.35
62928;BME280;51070;52.236;-0.892;2023-03-20T01:50:31;100794.95;;;7.52;75.56
62928;BME280;51070;52.236;-0.892;2023-03-20T01:55:27;100789.92;;;7.55;75.13
62928;BME280;51070;52.236;-0.892;2023-03-20T01:57:53;100786.33;;;7.56;75.17
62928;BME280;51070;52.236;-0.892;2023-03-20T02:00:21;100787.22;;;7.56;74.94
62928;BME280;51070;52.236;-0.892;2023-03-20T02:02:48;100786.59;;;7.57;74.93
62928;BME280;51070;52.236;-0.892;2023-03-20T02:05:16;100783.05;;;7.59;74.76
62928;BME280;51070;52.236;-0.892;2023-03-20T02:07:47;100773.23;;;7.59;74.68
62928;BME280;51070;52.236;-0.892;2023-03-20T02:10:15;100766.02;;;7.59;74.53
62928;BME280;51070;52.236;-0.892;2023-03-20T02:12:42;100761.24;;;7.60;74.19
62928;BME280;51070;52.236;-0.892;2023-03-20T02:15:10;100756.71;;;7.63;74.40
62928;BME280;51070;52.236;-0.892;2023-03-20T02:17:36;100751.75;;;7.67;74.31
62928;BME280;51070;52.236;-0.892;2023-03-20T02:20:16;100747.48;;;7.68;74.04
62928;BME280;51070;52.236;-0.892;2023-03-20T02:39:56;100727.66;;;7.67;75.59
62928;BME280;51070;52.236;-0.892;2023-03-20T02:47:49;100721.56;;;7.69;75.96
62928;BME280;51070;52.236;-0.892;2023-03-20T02:50:27;100716.16;;;7.68;76.08
62928;BME280;51070;52.236;-0.892;2023-03-20T03:00:54;100710.42;;;7.62;76.95
62928;BME280;51070;52.236;-0.892;2023-03-20T03:03:30;100710.89;;;7.61;77.01
62928;BME280;51070;52.236;-0.892;2023-03-20T03:06:19;100711.05;;;7.61;77.23
62928;BME280;51070;52.236;-0.892;2023-03-20T03:08:49;100713.64;;;7.61;77.26
62928;BME280;51070;52.236;-0.892;2023-03-20T03:11:17;100714.04;;;7.62;77.42
62928;BME280;51070;52.236;-0.892;2023-03-20T03:13:48;100717.52;;;7.63;77.54
62928;BME280;51070;52.236;-0.892;2023-03-20T03:16:19;100711.73;;;7.64;77.80
62928;BME280;51070;52.236;-0.892;2023-03-20T03:18:46;100712.98;;;7.66;78.41
62928;BME280;51070;52.236;-0.892;2023-03-20T03:21:15;100707.95;;;7.64;79.19
62928;BME280;51070;52.236;-0.892;2023-03-20T03:23:46;100710.16;;;7.64;79.28
62928;BME280;51070;52.236;-0.892;2023-03-20T03:26:18;100707.79;;;7.65;79.58
62928;BME280;51070;52.236;-0.892;2023-03-20T03:28:48;100703.92;;;7.67;80.37
62928;BME280;51070;52.236;-0.892;2023-03-20T03:31:16;100698.11;;;7.68;81.06
62928;BME280;51070;52.236;-0.892;2023-03-20T03:33:51;100699.20;;;7.69;81.92
62928;BME280;51070;52.236;-0.892;2023-03-20T03:39:23;100696.30;;;7.65;82.50
62928;BME280;51070;52.236;-0.892;2023-03-20T03:47:20;100682.84;;;7.69;83.49
62928;BME280;51070;52.236;-0.892;2023-03-20T03:49:52;100681.48;;;7.69;83.32
62928;BME280;51070;52.236;-0.892;2023-03-20T03:52:22;100680.49;;;7.70;83.85
62928;BME280;51070;52.236;-0.892;2023-03-20T03:54:59;100677.59;;;7.70;83.72
62928;BME280;51070;52.236;-0.892;2023-03-20T03:57:31;100682.52;;;7.73;83.71
62928;BME280;51070;52.236;-0.892;2023-03-20T04:00:00;100682.45;;;7.75;83.81
62928;BME280;51070;52.236;-0.892;2023-03-20T04:02:29;100675.63;;;7.76;84.12
62928;BME280;51070;52.236;-0.892;2023-03-20T04:04:55;100674.45;;;7.77;84.02
62928;BME280;51070;52.236;-0.892;2023-03-20T04:07:20;100671.89;;;7.78;84.34
62928;BME280;51070;52.236;-0.892;2023-03-20T04:09:49;100669.64;;;7.77;84.58
62928;BME280;51070;52.236;-0.892;2023-03-20T04:12:38;100667.30;;;7.79;84.55
62928;BME280;51070;52.236;-0.892;2023-03-20T04:15:05;100669.08;;;7.80;85.45
62928;BME280;51070;52.236;-0.892;2023-03-20T04:17:31;100671.19;;;7.81;84.95
62928;BME280;51070;52.236;-0.892;2023-03-20T04:19:56;100660.05;;;7.83;85.46
62928;BME280;51070;52.236;-0.892;2023-03-20T04:22:22;100660.93;;;7.83;85.82
62928;BME280;51070;52.236;-0.892;2023-03-20T04:24:48;100662.30;;;7.83;85.74
62928;BME280;51070;52.236;-0.892;2023-03-20T04:27:14;100662.52;;;7.84;85.85
62928;BME280;51070;52.236;-0.892;2023-03-20T04:29:39;100659.15;;;7.85;86.00
62928;BME280;51070;52.236;-0.892;2023-03-20T04:32:05;100661.52;;;7.89;85.77
62928;BME280;51070;52.236;-0.892;2023-03-20T04:34:31;100660.85;;;7.93;85.96
62928;BME280;51070;52.236;-0.892;2023-03-20T04:36:57;100657.13;;;7.95;86.56
62928;BME280;51070;52.236;-0.892;2023-03-20T04:39:25;100660.94;;;7.95;86.40
62928;BME280;51070;52.236;-0.892;2023-03-20T04:41:50;100656.33;;;7.96;86.65
62928;BME280;51070;52.236;-0.892;2023-03-20T04:44:16;100656.70;;;7.97;86.87
62928;BME280;51070;52.236;-0.892;2023-03-20T04:46:41;100654.33;;;7.98;86.87
62928;BME280;51070;52.236;-0.892;2023-03-20T04:49:06;100643.50;;;7.98;87.05
62928;BME280;51070;52.236;-0.892;2023-03-20T04:51:32;100644.25;;;8.00;86.89
62928;BME280;51070;52.236;-0.892;2023-03-20T04:53:57;100645.87;;;8.01;86.76
62928;BME280;51070;52.236;-0.892;2023-03-20T04:56:23;100643.30;;;8.02;87.22
62928;BME280;51070;52.236;-0.892;2023-03-20T04:58:48;100643.64;;;8.01;87.13
62928;BME280;51070;52.236;-0.892;2023-03-20T05:01:13;100639.73;;;8.03;87.86
62928;BME280;51070;52.236;-0.892;2023-03-20T05:03:39;100638.20;;;8.03;87.92
62928;BME280;51070;52.236;-0.892;2023-03-20T05:06:05;100641.00;;;8.05;88.04
62928;BME280;51070;52.236;-0.892;2023-03-20T05:08:31;100637.77;;;8.06;88.55
62928;BME280;51070;52.236;-0.892;2023-03-20T05:10:56;100635.76;;;8.07;88.54
62928;BME280;51070;52.236;-0.892;2023-03-20T05:13:22;100637.13;;;8.07;88.62
62928;BME280;51070;52.236;-0.892;2023-03-20T05:15:47;100632.90;;;8.08;88.73
62928;BME280;51070;52.236;-0.892;2023-03-20T05:18:13;100633.98;;;8.09;89.12
62928;BME280;51070;52.236;-0.892;2023-03-20T05:20:38;100633.49;;;8.11;89.45
62928;BME280;51070;52.236;-0.892;2023-03-20T05:23:04;100636.61;;;8.11;89.48
62928;BME280;51070;52.236;-0.892;2023-03-20T05:25:30;100636.84;;;8.12;90.44
62928;BME280;51070;52.236;-0.892;2023-03-20T05:27:55;100630.70;;;8.14;90.38
62928;BME280;51070;52.236;-0.892;2023-03-20T05:30:21;100630.06;;;8.15;90.66
62928;BME280;51070;52.236;-0.892;2023-03-20T05:32:50;100631.48;;;8.16;90.83
62928;BME280;51070;52.236;-0.892;2023-03-20T05:35:17;100631.17;;;8.17;91.23
62928;BME280;51070;52.236;-0.892;2023-03-20T05:37:43;100635.21;;;8.18;91.32
62928;BME280;51070;52.236;-0.892;2023-03-20T05:40:14;100638.05;;;8.20;91.13
62928;BME280;51070;52.236;-0.892;2023-03-20T05:42:40;100633.88;;;8.24;91.32
62928;BME280;51070;52.236;-0.892;2023-03-20T05:45:07;100637.40;;;8.26;91.58
62928;BME280;51070;52.236;-0.892;2023-03-20T05:47:33;100640.39;;;8.28;91.71
62928;BME280;51070;52.236;-0.892;2023-03-20T05:49:58;100639.98;;;8.29;91.98
62928;BME280;51070;52.236;-0.892;2023-03-20T05:52:24;100634.50;;;8.30;92.36
62928;BME280;51070;52.236;-0.892;2023-03-20T05:54:49;100634.36;;;8.31;92.31
62928;BME280;51070;52.236;-0.892;2023-03-20T05:57:15;100629.55;;;8.31;93.04
62928;BME280;51070;52.236;-0.892;2023-03-20T05:59:42;100634.23;;;8.32;92.73
62928;BME280;51070;52.236;-0.892;2023-03-20T06:02:08;100638.61;;;8.34;92.80
62928;BME280;51070;52.236;-0.892;2023-03-20T06:04:33;100640.05;;;8.35;93.18
62928;BME280;51070;52.236;-0.892;2023-03-20T06:07:02;100640.47;;;8.37;93.01
62928;BME280;51070;52.236;-0.892;2023-03-20T06:09:27;100639.04;;;8.40;93.38
62928;BME280;51070;52.236;-0.892;2023-03-20T06:11:53;100637.89;;;8.41;93.45
62928;BME280;51070;52.236;-0.892;2023-03-20T06:14:18;100632.09;;;8.43;93.83
62928;BME280;51070;52.236;-0.892;2023-03-20T06:16:44;100631.84;;;8.46;93.85
62928;BME280;51070;52.236;-0.892;2023-03-20T06:19:09;100627.73;;;8.46;94.66
62928;BME280;51070;52.236;-0.892;2023-03-20T06:21:35;100636.38;;;8.47;94.87
62928;BME280;51070;52.236;-0.892;2023-03-20T06:24:00;100644.71;;;8.49;95.33
62928;BME280;51070;52.236;-0.892;2023-03-20T06:26:25;100643.10;;;8.51;95.58
62928;BME280;51070;52.236;-0.892;2023-03-20T06:28:51;100642.79;;;8.52;97.08
62928;BME280;51070;52.236;-0.892;2023-03-20T06:31:16;100640.10;;;8.55;96.09
62928;BME280;51070;52.236;-0.892;2023-03-20T06:33:42;100644.91;;;8.58;96.51
62928;BME280;51070;52.236;-0.892;2023-03-20T06:36:07;100642.05;;;8.60;96.55
62928;BME280;51070;52.236;-0.892;2023-03-20T06:38:33;100645.09;;;8.63;95.99
62928;BME280;51070;52.236;-0.892;2023-03-20T06:40:58;100647.09;;;8.66;96.09
62928;BME280;51070;52.236;-0.892;2023-03-20T06:43:23;100656.38;;;8.69;96.00
62928;BME280;51070;52.236;-0.892;2023-03-20T06:45:49;100654.99;;;8.73;96.09
62928;BME280;51070;52.236;-0.892;2023-03-20T06:48:14;100654.77;;;8.77;96.10
62928;BME280;51070;52.236;-0.892;2023-03-20T06:50:49;100646.53;;;8.82;96.22
62928;BME280;51070;52.236;-0.892;2023-03-20T06:53:14;100648.07;;;8.87;96.12
62928;BME280;51070;52.236;-0.892;2023-03-20T06:55:42;100644.80;;;8.91;96.18
62928;BME280;51070;52.236;-0.892;2023-03-20T06:58:07;100641.84;;;8.95;96.32
62928;BME280;51070;52.236;-0.892;2023-03-20T07:00:33;100639.48;;;8.97;96.99
62928;BME280;51070;52.236;-0.892;2023-03-20T07:02:58;100639.77;;;9.00;96.67
62928;BME280;51070;52.236;-0.892;2023-03-20T07:05:24;100642.46;;;9.03;96.86
62928;BME280;51070;52.236;-0.892;2023-03-20T07:07:50;100646.90;;;9.06;96.76
62928;BME280;51070;52.236;-0.892;2023-03-20T07:10:16;100641.04;;;9.11;96.74
62928;BME280;51070;52.236;-0.892;2023-03-20T07:12:42;100642.61;;;9.15;96.71
62928;BME280;51070;52.236;-0.892;2023-03-20T07:15:08;100640.06;;;9.21;97.04
62928;BME280;51070;52.236;-0.892;2023-03-20T07:17:35;100645.43;;;9.27;96.76
62928;BME280;51070;52.236;-0.892;2023-03-20T07:20:02;100647.35;;;9.32;96.88
62928;BME280;51070;52.236;-0.892;2023-03-20T07:22:28;100646.29;;;9.37;96.83
62928;BME280;51070;52.236;-0.892;2023-03-20T07:24:54;100650.32;;;9.43;96.89
62928;BME280;51070;52.236;-0.892;2023-03-20T07:27:19;100652.03;;;9.48;96.58
62928;BME280;51070;52.236;-0.892;2023-03-20T07:29:45;100654.75;;;9.51;96.69
62928;BME280;51070;52.236;-0.892;2023-03-20T07:32:11;100655.34;;;9.53;97.08
62928;BME280;51070;52.236;-0.892;2023-03-20T07:34:36;100653.96;;;9.53;97.22
62928;BME280;51070;52.236;-0.892;2023-03-20T07:37:03;100644.35;;;9.55;97.68
62928;BME280;51070;52.236;-0.892;2023-03-20T07:39:28;100640.08;;;9.56;98.21
62928;BME280;51070;52.236;-0.892;2023-03-20T07:41:54;100640.98;;;9.57;98.70
62928;BME280;51070;52.236;-0.892;2023-03-20T07:44:20;100639.55;;;9.60;99.16
62928;BME280;51070;52.236;-0.892;2023-03-20T07:46:45;100641.95;;;9.65;98.59
62928;BME280;51070;52.236;-0.892;2023-03-20T07:49:15;100638.95;;;9.68;98.95
62928;BME280;51070;52.236;-0.892;2023-03-20T07:51:43;100638.72;;;9.72;99.08
62928;BME280;51070;52.236;-0.892;2023-03-20T07:54:09;100641.23;;;9.74;98.85
62928;BME280;51070;52.236;-0.892;2023-03-20T07:56:34;100640.19;;;9.79;98.73
62928;BME280;51070;52.236;-0.892;2023-03-20T07:59:00;100642.45;;;9.85;98.63
62928;BME280;51070;52.236;-0.892;2023-03-20T08:01:25;100645.10;;;9.91;98.46
62928;BME280;51070;52.236;-0.892;2023-03-20T08:03:50;100650.80;;;9.97;98.20
62928;BME280;51070;52.236;-0.892;2023-03-20T08:06:16;100650.78;;;10.01;98.17
62928;BME280;51070;52.236;-0.892;2023-03-20T08:08:41;100655.06;;;10.05;98.09
62928;BME280;51070;52.236;-0.892;2023-03-20T08:11:07;100656.42;;;10.10;98.09
62928;BME280;51070;52.236;-0.892;2023-03-20T08:13:32;100660.11;;;10.17;98.06
62928;BME280;51070;52.236;-0.892;2023-03-20T08:15:58;100658.29;;;10.24;97.60
62928;BME280;51070;52.236;-0.892;2023-03-20T08:18:23;100654.41;;;10.32;97.70
62928;BME280;51070;52.236;-0.892;2023-03-20T08:20:49;100656.54;;;10.39;97.47
62928;BME280;51070;52.236;-0.892;2023-03-20T08:23:18;100657.20;;;10.44;97.54
62928;BME280;51070;52.236;-0.892;2023-03-20T08:25:50;100655.90;;;10.46;97.14
62928;BME280;51070;52.236;-0.892;2023-03-20T08:28:17;100653.39;;;10.49;97.10
62928;BME280;51070;52.236;-0.892;2023-03-20T08:30:42;100654.44;;;10.55;97.29
62928;BME280;51070;52.236;-0.892;2023-03-20T08:33:08;100652.36;;;10.60;97.17
62928;BME280;51070;52.236;-0.892;2023-03-20T08:35:34;100652.09;;;10.68;97.11
62928;BME280;51070;52.236;-0.892;2023-03-20T08:38:00;100651.30;;;10.76;96.90
62928;BME280;51070;52.236;-0.892;2023-03-20T08:40:25;100645.30;;;10.89;96.73
62928;BME280;51070;52.236;-0.892;2023-03-20T08:42:51;100643.59;;;11.02;96.28
62928;BME280;51070;52.236;-0.892;2023-03-20T08:45:16;100643.54;;;11.12;96.12
62928;BME280;51070;52.236;-0.892;2023-03-20T08:47:42;100644.55;;;11.17;95.95
62928;BME280;51070;52.236;-0.892;2023-03-20T08:50:08;100644.68;;;11.22;95.79
62928;BME280;51070;52.236;-0.892;2023-03-20T08:52:34;100651.16;;;11.25;95.78
62928;BME280;51070;52.236;-0.892;2023-03-20T08:55:00;100645.09;;;11.24;95.80
62928;BME280;51070;52.236;-0.892;2023-03-20T08:57:26;100646.55;;;11.26;95.64
62928;BME280;51070;52.236;-0.892;2023-03-20T08:59:51;100647.17;;;11.25;95.75
62928;BME280;51070;52.236;-0.892;2023-03-20T09:02:17;100649.85;;;11.27;95.75
62928;BME280;51070;52.236;-0.892;2023-03-20T09:04:42;100649.69;;;11.34;95.72
62928;BME280;51070;52.236;-0.892;2023-03-20T09:07:07;100648.55;;;11.43;95.50
62928;BME280;51070;52.236;-0.892;2023-03-20T09:09:33;100648.21;;;11.49;95.34
62928;BME280;51070;52.236;-0.892;2023-03-20T09:11:59;100648.64;;;11.59;95.18
62928;BME280;51070;52.236;-0.892;2023-03-20T09:14:25;100653.31;;;11.65;94.87
62928;BME280;51070;52.236;-0.892;2023-03-20T09:16:51;100650.30;;;11.74;94.58
62928;BME280;51070;52.236;-0.892;2023-03-20T09:19:17;100650.23;;;11.78;94.31
62928;BME280;51070;52.236;-0.892;2023-03-20T09:21:43;100657.36;;;11.79;94.02
62928;BME280;51070;52.236;-0.892;2023-03-20T09:24:09;100656.64;;;11.79;94.09
62928;BME280;51070;52.236;-0.892;2023-03-20T09:26:36;100661.21;;;11.81;94.02
62928;BME280;51070;52.236;-0.892;2023-03-20T09:29:03;100655.25;;;11.85;93.86
62928;BME280;51070;52.236;-0.892;2023-03-20T09:31:28;100662.98;;;11.89;93.74
62928;BME280;51070;52.236;-0.892;2023-03-20T09:33:53;100665.05;;;11.95;93.60
62928;BME280;51070;52.236;-0.892;2023-03-20T09:36:19;100665.49;;;12.06;93.20
62928;BME280;51070;52.236;-0.892;2023-03-20T09:38:45;100664.34;;;12.23;92.97
62928;BME280;51070;52.236;-0.892;2023-03-20T09:41:22;100663.61;;;12.42;92.11
62928;BME280;51070;52.236;-0.892;2023-03-20T09:52:00;100662.92;;;13.19;89.14
62928;BME280;51070;52.236;-0.892;2023-03-20T09:54:32;100671.32;;;13.23;88.52
62928;BME280;51070;52.236;-0.892;2023-03-20T09:57:02;100664.92;;;13.24;88.21
62928;BME280;51070;52.236;-0.892;2023-03-20T09:59:31;100671.20;;;13.33;87.79
62928;BME280;51070;52.236;-0.892;2023-03-20T10:02:05;100664.13;;;13.71;86.21
62928;BME280;51070;52.236;-0.892;2023-03-20T10:04:32;100663.23;;;14.51;83.94
62928;BME280;51070;52.236;-0.892;2023-03-20T10:07:05;100662.08;;;15.16;80.85
62928;BME280;51070;52.236;-0.892;2023-03-20T10:09:31;100671.42;;;15.25;79.22
62928;BME280;51070;52.236;-0.892;2023-03-20T10:12:15;100668.40;;;15.20;78.18
62928;BME280;51070;52.236;-0.892;2023-03-20T10:15:04;100674.48;;;15.06;78.14
62928;BME280;51070;52.236;-0.892;2023-03-20T10:23:05;100669.20;;;15.15;77.87
62928;BME280;51070;52.236;-0.892;2023-03-20T10:25:53;100673.65;;;15.10;77.47
62928;BME280;51070;52.236;-0.892;2023-03-20T10:29:21;100665.90;;;15.03;77.55
62928;BME280;51070;52.236;-0.892;2023-03-20T10:34:25;100669.73;;;15.02;77.60
62928;BME280;51070;52.236;-0.892;2023-03-20T10:42:19;100663.48;;;14.77;77.55
62928;BME280;51070;52.236;-0.892;2023-03-20T10:45:00;100662.70;;;14.61;78.54
62928;BME280;51070;52.236;-0.892;2023-03-20T10:47:29;100659.80;;;14.53;79.35
62928;BME280;51070;52.236;-0.892;2023-03-20T10:50:00;100657.54;;;14.52;79.54
62928;BME280;51070;52.236;-0.892;2023-03-20T10:52:30;100661.35;;;14.51;79.26
62928;BME280;51070;52.236;-0.892;2023-03-20T10:55:03;100661.79;;;14.47;79.33
62928;BME280;51070;52.236;-0.892;2023-03-20T10:57:33;100661.41;;;14.45;79.48
62928;BME280;51070;52.236;-0.892;2023-03-20T11:00:00;100655.58;;;14.38;79.62
62928;BME280;51070;52.236;-0.892;2023-03-20T11:02:30;100656.03;;;14.36;80.21
62928;BME280;51070;52.236;-0.892;2023-03-20T11:05:00;100657.35;;;14.31;80.43
62928;BME280;51070;52.236;-0.892;2023-03-20T11:07:34;100655.42;;;14.30;81.03
62928;BME280;51070;52.236;-0.892;2023-03-20T11:12:36;100651.14;;;14.34;81.24
62928;BME280;51070;52.236;-0.892;2023-03-20T11:15:13;100651.87;;;14.36;81.37
62928;BME280;51070;52.236;-0.892;2023-03-20T11:17:40;100640.81;;;14.39;81.61
62928;BME280;51070;52.236;-0.892;2023-03-20T11:20:06;100632.77;;;14.59;80.77
62928;BME280;51070;52.236;-0.892;2023-03-20T11:22:39;100632.91;;;14.67;79.95
62928;BME280;51070;52.236;-0.892;2023-03-20T11:25:19;100628.19;;;14.93;79.57
62928;BME280;51070;52.236;-0.892;2023-03-20T11:27:46;100622.61;;;15.35;77.66
62928;BME280;51070;52.236;-0.892;2023-03-20T11:30:14;100622.70;;;15.43;76.99
62928;BME280;51070;52.236;-0.892;2023-03-20T11:32:49;100626.73;;;15.31;77.06
62928;BME280;51070;52.236;-0.892;2023-03-20T11:37:45;100630.46;;;15.06;78.00
62928;BME280;51070;52.236;-0.892;2023-03-20T11:40:30;100631.49;;;15.06;77.95
62928;BME280;51070;52.236;-0.892;2023-03-20T11:43:03;100625.27;;;14.97;78.22
62928;BME280;51070;52.236;-0.892;2023-03-20T11:45:57;100621.33;;;14.87;78.27
62928;BME280;51070;52.236;-0.892;2023-03-20T11:48:38;100622.18;;;14.73;78.93
62928;BME280;51070;52.236;-0.892;2023-03-20T11:51:10;100615.73;;;14.85;78.83
62928;BME280;51070;52.236;-0.892;2023-03-20T11:53:41;100620.84;;;15.17;78.34
62928;BME280;51070;52.236;-0.892;2023-03-20T11:56:20;100625.79;;;15.53;77.31
62928;BME280;51070;52.236;-0.892;2023-03-20T12:01:45;100621.11;;;15.73;76.58
62928;BME280;51070;52.236;-0.892;2023-03-20T12:04:34;100617.16;;;15.79;76.36
62928;BME280;51070;52.236;-0.892;2023-03-20T12:07:18;100617.52;;;15.79;76.41
62928;BME280;51070;52.236;-0.892;2023-03-20T12:10:03;100616.20;;;15.86;75.86
62928;BME280;51070;52.236;-0.892;2023-03-20T12:12:33;100616.87;;;15.83;75.90
62928;BME280;51070;52.236;-0.892;2023-03-20T12:17:53;100618.52;;;15.75;76.18
62928;BME280;51070;52.236;-0.892;2023-03-20T12:20:44;100616.34;;;15.65;76.20
62928;BME280;51070;52.236;-0.892;2023-03-20T12:23:14;100611.20;;;15.56;76.48
62928;BME280;51070;52.236;-0.892;2023-03-20T12:25:53;100612.92;;;15.52;76.99
62928;BME280;51070;52.236;-0.892;2023-03-20T12:28:29;100614.94;;;15.50;76.16
62928;BME280;51070;52.236;-0.892;2023-03-20T12:31:41;100612.37;;;15.51;76.53
62928;BME280;51070;52.236;-0.892;2023-03-20T12:34:30;100609.84;;;15.60;76.41
62928;BME280;51070;52.236;-0.892;2023-03-20T12:36:57;100612.48;;;15.62;76.00
62928;BME280;51070;52.236;-0.892;2023-03-20T12:39:34;100610.20;;;15.61;76.08
62928;BME280;51070;52.236;-0.892;2023-03-20T12:50:30;100590.81;;;16.15;74.60
62928;BME280;51070;52.236;-0.892;2023-03-20T12:58:42;100584.54;;;16.41;72.95
62928;BME280;51070;52.236;-0.892;2023-03-20T13:06:42;100582.13;;;16.46;72.44
62928;BME280;51070;52.236;-0.892;2023-03-20T13:15:18;100581.38;;;16.35;71.21
62928;BME280;51070;52.236;-0.892;2023-03-20T13:20:54;100568.05;;;16.55;70.72
62928;BME280;51070;52.236;-0.892;2023-03-20T13:26:26;100568.23;;;16.56;70.39
62928;BME280;51070;52.236;-0.892;2023-03-20T13:32:15;100561.34;;;17.07;69.11
62928;BME280;51070;52.236;-0.892;2023-03-20T13:37:37;100560.59;;;16.94;68.96
62928;BME280;51070;52.236;-0.892;2023-03-20T13:48:37;100558.02;;;17.12;68.68
62928;BME280;51070;52.236;-0.892;2023-03-20T14:04:33;100547.70;;;17.02;67.93
62928;BME280;51070;52.236;-0.892;2023-03-20T14:06:58;100544.38;;;17.00;68.69
62928;BME280;51070;52.236;-0.892;2023-03-20T14:09:33;100549.39;;;16.86;68.35
62928;BME280;51070;52.236;-0.892;2023-03-20T14:14:37;100547.14;;;16.29;70.04
62928;BME280;51070;52.236;-0.892;2023-03-20T14:17:17;100544.90;;;16.05;71.30
62928;BME280;51070;52.236;-0.892;2023-03-20T14:19:44;100541.84;;;15.93;71.91
62928;BME280;51070;52.236;-0.892;2023-03-20T14:22:16;100541.90;;;15.78;72.44
62928;BME280;51070;52.236;-0.892;2023-03-20T14:24:55;100545.67;;;15.70;73.00
62928;BME280;51070;52.236;-0.892;2023-03-20T14:27:24;100544.23;;;15.67;73.52
62928;BME280;51070;52.236;-0.892;2023-03-20T14:29:50;100543.36;;;15.66;74.64
62928;BME280;51070;52.236;-0.892;2023-03-20T14:35:00;100539.36;;;15.66;75.50
62928;BME280;51070;52.236;-0.892;2023-03-20T14:40:04;100548.92;;;15.64;75.47
62928;BME280;51070;52.236;-0.892;2023-03-20T14:50:35;100545.19;;;14.92;77.86
62928;BME280;51070;52.236;-0.892;2023-03-20T14:53:23;100547.16;;;14.83;78.27
62928;BME280;51070;52.236;-0.892;2023-03-20T14:56:12;100540.84;;;14.79;78.86
62928;BME280;51070;52.236;-0.892;2023-03-20T15:04:37;100540.10;;;14.75;79.86
62928;BME280;51070;52.236;-0.892;2023-03-20T15:07:29;100539.26;;;14.77;79.62
62928;BME280;51070;52.236;-0.892;2023-03-20T15:10:11;100542.75;;;14.78;80.53
62928;BME280;51070;52.236;-0.892;2023-03-20T15:12:58;100544.07;;;14.72;81.17
62928;BME280;51070;52.236;-0.892;2023-03-20T15:15:29;100544.71;;;14.67;81.29
62928;BME280;51070;52.236;-0.892;2023-03-20T15:18:13;100543.08;;;14.62;81.60
62928;BME280;51070;52.236;-0.892;2023-03-20T15:20:57;100543.00;;;14.56;82.13
62928;BME280;51070;52.236;-0.892;2023-03-20T15:23:30;100538.92;;;14.51;82.56
62928;BME280;51070;52.236;-0.892;2023-03-20T15:26:10;100543.76;;;14.48;83.21
62928;BME280;51070;52.236;-0.892;2023-03-20T15:28:37;100542.34;;;14.46;83.36
62928;BME280;51070;52.236;-0.892;2023-03-20T15:31:45;100538.70;;;14.48;83.23
62928;BME280;51070;52.236;-0.892;2023-03-20T15:34:17;100540.67;;;14.51;82.90
62928;BME280;51070;52.236;-0.892;2023-03-20T15:36:59;100540.63;;;14.48;82.90
62928;BME280;51070;52.236;-0.892;2023-03-20T15:39:48;100538.81;;;14.43;83.27